Arkansas International Airport Blytheville US
ICAO: KBYH
IATA: BYH
Category: Medium
Scheduled Services: No

Elevation: 254 ft
TransAlt. 18000 ft.

Airport Communications:
MEMPHIS CNTR:134.65
CTAF/UNICOM:122.7

KBYH Zoom In..

Runways:

(A) RW 18 length 11602 ft width 150 ft
ILS 110.30 / hdg 179

(B) RW 36 length 11602 ft width 150 ft
---- / hdg 359

Location; KBYH
Day. 11 / Time. 22.53 Zulu
* Altimeter: 29.78
* Temperature: 17° c. 62.6°f.
* Wind from: 210° Speed 04 kn.
Dewpoint: 15° c.
Visibility: 6 Statute Miles.
Clouds: Scattered 3400 ft.
Clouds: Broken 5000 ft.
Clouds: Overcast 7000 ft.
Conditions: Slight Drizzle.Conditions: Mist.

KBYH 112253Z 21004KT 6SM -DZ BR SCT034 BKN050 OVC070 17/15 A2978 RMK LAST


Wind From 210°
Speed 04 kn.

jpsM music video
CHECK IT OUT

jpsM - It Moves..

 
jpsmedia.com for Web Design  worldairports.se 2018   terms of use